createdAt,value
2018-06-09T00:02:26.722Z,98982.27
2018-06-09T00:04:56.667Z,98986.55
2018-06-09T00:07:26.605Z,98985.52
2018-06-09T00:09:58.332Z,98974.16
2018-06-09T00:12:28.789Z,98973.29
2018-06-09T00:14:59.673Z,98970.80
2018-06-09T00:17:28.332Z,98962.45
2018-06-09T00:20:05.233Z,98962.95
2018-06-09T00:22:34.320Z,98965.92
2018-06-09T00:25:04.102Z,98962.84
2018-06-09T00:27:32.638Z,98961.80
2018-06-09T00:30:01.117Z,98960.20
2018-06-09T00:32:29.628Z,98960.70
2018-06-09T00:34:58.106Z,98958.13
2018-06-09T00:37:26.630Z,98962.11
2018-06-09T00:39:55.107Z,98962.42
2018-06-09T00:42:23.630Z,98959.32
2018-06-09T00:44:52.106Z,98957.14
2018-06-09T00:47:20.619Z,98952.74
2018-06-09T00:49:49.105Z,98951.28
2018-06-09T00:52:17.636Z,98953.77
2018-06-09T00:54:46.118Z,98960.67
2018-06-09T00:57:14.656Z,98962.52
2018-06-09T00:59:43.114Z,98974.47
2018-06-09T01:02:11.620Z,98972.47
2018-06-09T01:04:40.090Z,98972.31
2018-06-09T01:07:08.586Z,98972.77
2018-06-09T01:09:37.322Z,98975.72
2018-06-09T01:12:06.208Z,98971.59
2018-06-09T01:14:34.721Z,98972.68
2018-06-09T01:17:03.199Z,98972.23
2018-06-09T01:19:31.765Z,98978.83
2018-06-09T01:22:00.286Z,98980.45
2018-06-09T01:24:28.737Z,98971.31
2018-06-09T01:26:58.219Z,98969.51
2018-06-09T01:29:26.675Z,98970.84
2018-06-09T01:31:55.175Z,98970.05
2018-06-09T01:34:23.658Z,98973.04
2018-06-09T01:36:52.190Z,98970.76
2018-06-09T01:39:20.646Z,98972.56
2018-06-09T01:41:49.123Z,98967.47
2018-06-09T01:44:17.575Z,98977.78
2018-06-09T01:46:46.058Z,98971.09
2018-06-09T01:49:14.510Z,98963.27
2018-06-09T01:51:43.001Z,98972.71
2018-06-09T01:54:11.446Z,98976.10
2018-06-09T01:56:39.949Z,98976.52
2018-06-09T01:59:08.403Z,98973.17
2018-06-09T02:01:36.888Z,98974.69
2018-06-09T02:04:05.502Z,98975.67
2018-06-09T02:06:34.019Z,98978.48
2018-06-09T02:09:02.475Z,98977.45
2018-06-09T02:11:30.981Z,98975.17
2018-06-09T02:13:59.449Z,98978.73
2018-06-09T02:16:28.185Z,98979.56
2018-06-09T02:18:56.666Z,98985.91
2018-06-09T02:21:25.146Z,98984.67
2018-06-09T02:23:53.630Z,98981.72
2018-06-09T02:26:22.096Z,98983.14
2018-06-09T02:28:50.602Z,98986.09
2018-06-09T02:31:19.053Z,98983.62
2018-06-09T02:33:47.563Z,98978.81
2018-06-09T02:36:16.023Z,98980.48
2018-06-09T02:38:44.511Z,98981.20
2018-06-09T02:41:12.974Z,98983.59
2018-06-09T02:43:41.463Z,98982.75
2018-06-09T02:46:10.038Z,98980.02
2018-06-09T02:48:38.546Z,98985.33
2018-06-09T02:51:07.027Z,98984.44
2018-06-09T02:53:35.522Z,98985.66
2018-06-09T02:56:04.033Z,98989.09
2018-06-09T02:58:32.559Z,98991.84
2018-06-09T03:01:01.038Z,98993.92
2018-06-09T03:03:29.568Z,98990.91
2018-06-09T03:05:58.439Z,98992.84
2018-06-09T03:08:26.934Z,98990.48
2018-06-09T03:10:55.425Z,98990.59
2018-06-09T03:13:23.935Z,98991.81
2018-06-09T03:15:52.686Z,98990.47
2018-06-09T03:18:21.187Z,98992.01
2018-06-09T03:20:49.666Z,98994.56
2018-06-09T03:23:18.171Z,98990.97
2018-06-09T03:25:46.641Z,98995.53
2018-06-09T03:28:15.142Z,98998.09
2018-06-09T03:30:43.638Z,98999.84
2018-06-09T03:33:12.167Z,98994.53
2018-06-09T03:35:40.654Z,98990.41
2018-06-09T03:38:09.158Z,98987.50
2018-06-09T03:40:37.644Z,98988.69
2018-06-09T03:43:06.231Z,98990.13
2018-06-09T03:45:34.661Z,98995.36
2018-06-09T03:48:03.157Z,98997.94
2018-06-09T03:50:31.695Z,98988.07
2018-06-09T03:53:00.166Z,98993.84
2018-06-09T03:55:28.644Z,98993.48
2018-06-09T03:57:57.183Z,99001.20
2018-06-09T04:00:25.652Z,99004.61
2018-06-09T04:02:54.138Z,99005.28
2018-06-09T04:05:22.686Z,99005.42
2018-06-09T04:07:51.186Z,99010.33
2018-06-09T04:10:19.718Z,99005.42
2018-06-09T04:12:48.198Z,99007.11
2018-06-09T04:15:18.885Z,99009.17
2018-06-09T04:17:47.596Z,99014.31
2018-06-09T04:20:16.125Z,99002.16
2018-06-09T04:22:44.605Z,99005.10
2018-06-09T04:25:13.110Z,98997.41
2018-06-09T04:27:41.723Z,99006.33
2018-06-09T04:30:10.267Z,99002.84
2018-06-09T04:32:39.941Z,99004.84
2018-06-09T04:35:08.763Z,99013.10
2018-06-09T04:37:37.282Z,99000.07
2018-06-09T04:40:05.852Z,98992.50
2018-06-09T04:42:34.338Z,98987.13
2018-06-09T04:45:02.866Z,98984.51
2018-06-09T04:47:31.358Z,98991.80
2018-06-09T04:49:59.866Z,98995.84
2018-06-09T04:52:28.730Z,98996.22
2018-06-09T04:54:57.578Z,99001.91
2018-06-09T04:57:26.145Z,99003.45
2018-06-09T04:59:54.708Z,99006.93
2018-06-09T05:02:24.401Z,99005.09
2018-06-09T05:04:52.910Z,99005.94
2018-06-09T05:07:22.417Z,99005.48
2018-06-09T05:09:51.493Z,99003.48
2018-06-09T05:12:19.958Z,99008.30
2018-06-09T05:14:48.473Z,99012.20
2018-06-09T05:17:17.691Z,99016.94
2018-06-09T05:19:46.192Z,99019.30
2018-06-09T05:22:14.682Z,99010.50
2018-06-09T05:24:43.193Z,99015.22
2018-06-09T05:27:11.681Z,99012.66
2018-06-09T05:29:40.181Z,99014.86
2018-06-09T05:32:08.950Z,99017.36
2018-06-09T05:34:37.430Z,99019.52
2018-06-09T05:37:05.951Z,99015.66
2018-06-09T05:39:34.430Z,99020.16
2018-06-09T05:42:02.946Z,99016.98
2018-06-09T05:44:31.448Z,99019.34
2018-06-09T05:47:00.229Z,99022.36
2018-06-09T05:49:28.928Z,99025.06
2018-06-09T05:51:59.564Z,99028.38
2018-06-09T05:54:28.865Z,99024.44
2018-06-09T05:56:57.399Z,99027.02
2018-06-09T05:59:25.885Z,99029.52
2018-06-09T06:01:54.836Z,99033.51
2018-06-09T06:04:28.243Z,99028.38
2018-06-09T06:07:06.351Z,99025.20
2018-06-09T06:09:40.698Z,99028.89
2018-06-09T06:12:14.985Z,99028.61
2018-06-09T06:14:45.118Z,99032.10
2018-06-09T06:17:14.791Z,99031.85
2018-06-09T06:19:43.273Z,99035.56
2018-06-09T06:22:12.629Z,99032.42
2018-06-09T06:24:41.098Z,99030.05
2018-06-09T06:27:09.933Z,99038.16
2018-06-09T06:29:38.825Z,99042.06
2018-06-09T06:32:07.377Z,99050.41
2018-06-09T06:34:35.864Z,99052.08
2018-06-09T06:37:04.367Z,99046.38
2018-06-09T06:39:32.834Z,99050.75
2018-06-09T06:42:01.339Z,99048.32
2018-06-09T06:44:29.815Z,99046.31
2018-06-09T06:46:59.138Z,99049.51
2018-06-09T06:49:27.611Z,99051.17
2018-06-09T06:51:56.134Z,99050.53
2018-06-09T06:54:31.146Z,99052.86
2018-06-09T06:57:08.187Z,99053.09
2018-06-09T06:59:36.637Z,99053.38
2018-06-09T07:02:05.222Z,99057.91
2018-06-09T07:04:33.682Z,99057.88
2018-06-09T07:07:02.170Z,99057.16
2018-06-09T07:09:30.635Z,99059.66
2018-06-09T07:11:59.562Z,99060.48
2018-06-09T07:14:28.020Z,99064.30
2018-06-09T07:16:56.505Z,99061.94
2018-06-09T07:19:24.954Z,99062.22
2018-06-09T07:21:53.431Z,99053.89
2018-06-09T07:24:21.927Z,99051.67
2018-06-09T07:26:50.424Z,99052.20
2018-06-09T07:29:18.881Z,99053.14
2018-06-09T07:31:47.345Z,99062.67
2018-06-09T07:34:15.857Z,99057.47
2018-06-09T07:36:44.293Z,99047.78
2018-06-09T07:39:12.785Z,99048.14
2018-06-09T07:41:41.238Z,99050.64
2018-06-09T07:44:09.718Z,99060.80
2018-06-09T07:46:38.183Z,99047.66
2018-06-09T07:49:06.678Z,99051.25
2018-06-09T07:51:35.140Z,99043.16
2018-06-09T07:54:03.680Z,99043.03
2018-06-09T07:56:32.149Z,99038.20
2018-06-09T07:59:00.957Z,99040.92
2018-06-09T08:01:30.448Z,99048.56
2018-06-09T08:03:59.853Z,99056.66
2018-06-09T08:06:30.460Z,99055.43
2018-06-09T08:08:59.322Z,99062.31
2018-06-09T08:11:27.803Z,99057.02
2018-06-09T08:13:56.328Z,99048.17
2018-06-09T08:16:24.858Z,99049.09
2018-06-09T08:18:53.357Z,99052.88
2018-06-09T08:21:21.821Z,99043.50
2018-06-09T08:23:50.318Z,99041.59
2018-06-09T08:26:21.342Z,99033.44
2018-06-09T08:28:50.116Z,99033.91
2018-06-09T08:31:18.619Z,99022.88
2018-06-09T08:33:47.919Z,99018.42
2018-06-09T08:36:16.725Z,99026.13
2018-06-09T08:38:45.527Z,99024.19
2018-06-09T08:41:14.034Z,99021.34
2018-06-09T08:43:42.550Z,99023.20
2018-06-09T08:46:11.068Z,99015.90
2018-06-09T08:48:39.576Z,99021.20
2018-06-09T08:51:09.808Z,99017.16
2018-06-09T08:53:38.638Z,99010.70
2018-06-09T08:56:07.145Z,99011.35
2018-06-09T08:58:35.653Z,99013.52
2018-06-09T09:01:22.837Z,99018.02
2018-06-09T09:03:52.788Z,99022.22
2018-06-09T09:06:24.500Z,99020.36
2018-06-09T09:08:53.654Z,99022.67
2018-06-09T09:11:25.310Z,99024.98
2018-06-09T09:14:04.183Z,99021.06
2018-06-09T09:16:40.715Z,99029.83
2018-06-09T09:19:15.429Z,99020.55
2018-06-09T09:21:50.114Z,99020.67
2018-06-09T09:24:25.973Z,99025.09
2018-06-09T09:27:03.179Z,99027.22
2018-06-09T09:29:37.927Z,99028.83
2018-06-09T09:32:12.743Z,99024.70
2018-06-09T09:34:49.071Z,99022.39
2018-06-09T09:37:24.424Z,99021.61
2018-06-09T09:39:59.776Z,99025.08
2018-06-09T09:52:11.189Z,99025.45
2018-06-09T09:54:47.442Z,99026.30
2018-06-09T09:57:22.295Z,99027.01
2018-06-09T09:59:58.357Z,99018.98
2018-06-09T10:02:28.694Z,99017.43
2018-06-09T10:04:57.190Z,99021.72
2018-06-09T10:07:33.367Z,99016.63
2018-06-09T10:10:03.062Z,99015.97
2018-06-09T10:12:31.984Z,99009.91
2018-06-09T10:15:00.490Z,99010.37
2018-06-09T10:17:32.537Z,99008.50
2018-06-09T10:20:01.810Z,99009.09
2018-06-09T10:22:34.741Z,99013.41
2018-06-09T10:25:03.474Z,99013.22
2018-06-09T10:27:34.518Z,99011.44
2018-06-09T10:30:10.445Z,99011.58
2018-06-09T10:32:47.633Z,99001.44
2018-06-09T10:35:22.528Z,99005.89
2018-06-09T10:37:58.451Z,98999.52
2018-06-09T10:40:33.522Z,99000.20
2018-06-09T10:43:10.710Z,98999.56
2018-06-09T10:45:48.551Z,98994.36
2018-06-09T10:48:22.406Z,98992.12
2018-06-09T10:53:36.607Z,98996.16
2018-06-09T10:56:17.396Z,98995.04
2018-06-09T10:58:53.631Z,98992.77
2018-06-09T11:01:31.984Z,98998.12
2018-06-09T11:04:08.524Z,98997.86
2018-06-09T11:06:44.840Z,98996.38
2018-06-09T11:09:25.570Z,99001.45
2018-06-09T11:12:02.122Z,98999.93
2018-06-09T11:14:39.597Z,98996.30
2018-06-09T11:17:18.234Z,98995.44
2018-06-09T11:19:55.663Z,98996.89
2018-06-09T11:22:32.691Z,98996.88
2018-06-09T11:25:09.077Z,98995.45
2018-06-09T11:27:44.480Z,98984.88
2018-06-09T11:30:19.623Z,98987.19
2018-06-09T11:32:55.067Z,98986.34
2018-06-09T11:35:27.561Z,98982.42
2018-06-09T11:38:03.931Z,98983.83
2018-06-09T11:40:38.669Z,98979.67
2018-06-09T11:43:14.341Z,98976.73
2018-06-09T11:45:49.540Z,98966.98
2018-06-09T11:48:25.314Z,98965.95
2018-06-09T11:50:54.007Z,98960.05
2018-06-09T11:53:22.523Z,98958.05
2018-06-09T11:55:50.989Z,98955.52
2018-06-09T11:58:19.502Z,98953.28
2018-06-09T12:00:47.977Z,98960.34
2018-06-09T12:03:16.451Z,98954.04
2018-06-09T12:05:44.899Z,98958.91
2018-06-09T12:08:13.381Z,98951.88
2018-06-09T12:13:44.980Z,98946.48
2018-06-09T12:16:13.565Z,98947.62
2018-06-09T12:18:42.121Z,98945.02
2018-06-09T12:21:10.643Z,98949.80
2018-06-09T12:23:39.196Z,98944.63
2018-06-09T12:26:07.717Z,98933.66
2018-06-09T12:28:36.610Z,98929.94
2018-06-09T12:31:05.143Z,98931.36
2018-06-09T12:33:33.709Z,98929.00
2018-06-09T12:36:07.907Z,98933.05
2018-06-09T12:38:50.400Z,98925.17
2018-06-09T12:41:25.703Z,98919.38
2018-06-09T12:44:03.969Z,98921.62
2018-06-09T12:46:40.197Z,98916.55
2018-06-09T12:49:15.673Z,98911.30
2018-06-09T12:51:50.491Z,98876.55
2018-06-09T12:54:30.551Z,98917.59
2018-06-09T12:57:00.790Z,98912.01
2018-06-09T12:59:30.634Z,98903.02
2018-06-09T13:02:03.341Z,98899.98
2018-06-09T13:04:32.827Z,98903.59
2018-06-09T13:07:01.544Z,98900.09
2018-06-09T13:09:30.753Z,98890.80
2018-06-09T13:11:59.305Z,98895.95
2018-06-09T13:14:28.220Z,98888.89
2018-06-09T13:16:56.784Z,98894.68
2018-06-09T13:19:27.111Z,98894.89
2018-06-09T13:21:56.796Z,98891.67
2018-06-09T13:24:25.357Z,98899.41
2018-06-09T13:26:57.100Z,98907.61
2018-06-09T13:29:25.813Z,98867.59
2018-06-09T13:31:54.334Z,98906.52
2018-06-09T13:34:22.904Z,98898.16
2018-06-09T13:36:51.425Z,98897.64
2018-06-09T13:39:20.263Z,98895.02
2018-06-09T13:41:48.781Z,98899.62
2018-06-09T13:44:17.339Z,98906.91
2018-06-09T13:46:48.412Z,98919.72
2018-06-09T13:49:17.133Z,98921.03
2018-06-09T13:51:45.656Z,98915.22
2018-06-09T13:54:14.215Z,98900.92
2018-06-09T13:56:42.817Z,98906.13
2018-06-09T13:59:11.340Z,98905.19
2018-06-09T14:01:40.665Z,98911.71
2018-06-09T14:04:09.181Z,98923.09
2018-06-09T14:06:37.677Z,98935.92
2018-06-09T14:09:07.880Z,98943.95
2018-06-09T14:11:37.996Z,98953.09
2018-06-09T14:14:06.949Z,98964.27
2018-06-09T14:16:35.445Z,98967.04
2018-06-09T14:19:04.437Z,98970.73
2018-06-09T14:21:33.174Z,98968.38
2018-06-09T14:24:01.724Z,98977.30
2018-06-09T14:26:33.825Z,98970.41
2018-06-09T14:29:02.356Z,98981.61
2018-06-09T14:31:33.524Z,98971.81
2018-06-09T14:34:03.281Z,98958.13
2018-06-09T14:36:32.695Z,98971.95
2018-06-09T14:39:01.244Z,98978.84
2018-06-09T14:41:29.760Z,98983.59
2018-06-09T14:43:58.887Z,98981.84
2018-06-09T14:46:27.593Z,98980.14
2018-06-09T14:48:56.464Z,98965.77
2018-06-09T14:51:24.984Z,98962.48
2018-06-09T14:53:53.588Z,98963.98
2018-06-09T14:56:22.753Z,98967.19
2018-06-09T14:58:51.380Z,98982.52
2018-06-09T15:01:19.912Z,98993.37
2018-06-09T15:03:48.432Z,98993.48
2018-06-09T15:06:16.968Z,98987.81
2018-06-09T15:08:45.493Z,98983.98
2018-06-09T15:11:15.897Z,98978.34
2018-06-09T15:13:44.510Z,98978.77
2018-06-09T15:16:13.049Z,98987.66
2018-06-09T15:18:41.892Z,98987.45
2018-06-09T15:21:10.433Z,98987.72
2018-06-09T15:23:39.411Z,98974.58
2018-06-09T15:26:07.997Z,98968.31
2018-06-09T15:28:38.665Z,98971.95
2018-06-09T15:31:09.735Z,98978.65
2018-06-09T15:33:38.404Z,98972.39
2018-06-09T15:36:06.959Z,98988.28
2018-06-09T15:38:35.468Z,98998.69
2018-06-09T15:41:04.085Z,99003.66
2018-06-09T15:43:32.680Z,99002.80
2018-06-09T15:46:01.433Z,99018.31
2018-06-09T15:48:30.597Z,99015.89
2018-06-09T15:50:59.267Z,99025.58
2018-06-09T15:53:27.824Z,99042.04
2018-06-09T15:55:56.358Z,99045.78
2018-06-09T15:58:25.177Z,99046.63
2018-06-09T16:00:54.232Z,99044.72
2018-06-09T16:03:23.592Z,99043.75
2018-06-09T16:05:52.104Z,99037.97
2018-06-09T16:08:23.242Z,99041.84
2018-06-09T16:10:51.773Z,99039.45
2018-06-09T16:13:20.292Z,99045.28
2018-06-09T16:15:48.804Z,99034.02
2018-06-09T16:18:17.353Z,99026.75
2018-06-09T16:20:46.867Z,99015.02
2018-06-09T16:23:15.403Z,99010.52
2018-06-09T16:25:43.888Z,99009.59
2018-06-09T16:28:12.412Z,99016.95
2018-06-09T16:30:40.921Z,99019.57
2018-06-09T16:33:09.459Z,99023.09
2018-06-09T16:35:37.960Z,99024.09
2018-06-09T16:38:06.560Z,99019.52
2018-06-09T16:40:35.096Z,99022.23
2018-06-09T16:43:03.596Z,99013.89
2018-06-09T16:45:32.442Z,99013.84
2018-06-09T16:48:01.887Z,99012.35
2018-06-09T16:50:32.358Z,99010.52
2018-06-09T16:53:02.708Z,99017.69
2018-06-09T16:55:35.973Z,99018.63
2018-06-09T16:58:04.851Z,99021.09
2018-06-09T17:00:33.397Z,99020.12
2018-06-09T17:03:01.913Z,99021.29
2018-06-09T17:05:31.485Z,99014.28
2018-06-09T17:07:59.993Z,99011.94
2018-06-09T17:10:28.815Z,99006.73
2018-06-09T17:12:59.956Z,99001.41
2018-06-09T17:15:28.890Z,99006.06
2018-06-09T17:17:57.447Z,99000.74
2018-06-09T17:20:26.335Z,98998.58
2018-06-09T17:22:54.852Z,98998.55
2018-06-09T17:25:23.389Z,98992.91
2018-06-09T17:27:51.884Z,98990.31
2018-06-09T17:30:20.432Z,98981.91
2018-06-09T17:32:48.929Z,98984.05
2018-06-09T17:35:17.464Z,98979.08
2018-06-09T17:37:45.968Z,98976.11
2018-06-09T17:40:16.573Z,98978.49
2018-06-09T17:42:45.080Z,98972.81
2018-06-09T17:45:16.208Z,98983.62
2018-06-09T17:47:45.069Z,98984.80
2018-06-09T17:50:13.616Z,98976.17
2018-06-09T17:52:42.112Z,98972.31
2018-06-09T17:55:13.033Z,98976.62
2018-06-09T17:57:41.640Z,98982.29
2018-06-09T18:00:10.761Z,98979.82
2018-06-09T18:02:39.371Z,98976.94
2018-06-09T18:05:07.928Z,98975.25
2018-06-09T18:07:36.768Z,98979.28
2018-06-09T18:10:05.355Z,98979.89
2018-06-09T18:12:34.038Z,98986.94
2018-06-09T18:15:08.933Z,98991.18
2018-06-09T18:17:39.185Z,98995.37
2018-06-09T18:20:08.599Z,98990.71
2018-06-09T18:22:37.599Z,99002.09
2018-06-09T18:25:06.916Z,99006.74
2018-06-09T18:27:35.481Z,99019.33
2018-06-09T18:30:04.127Z,99024.09
2018-06-09T18:32:35.940Z,99021.89
2018-06-09T18:35:04.508Z,99018.36
2018-06-09T18:37:33.792Z,99028.70
2018-06-09T18:40:02.312Z,99029.11
2018-06-09T18:42:31.915Z,99028.44
2018-06-09T18:45:02.534Z,99031.72
2018-06-09T18:47:31.979Z,99028.50
2018-06-09T18:50:01.156Z,99029.57
2018-06-09T18:52:34.217Z,99028.55
2018-06-09T18:55:02.755Z,99026.29
2018-06-09T18:57:32.229Z,99034.28
2018-06-09T19:00:01.827Z,99036.22
2018-06-09T19:02:31.437Z,99040.47
2018-06-09T19:04:59.954Z,99045.38
2018-06-09T19:07:28.516Z,99038.61
2018-06-09T19:09:57.677Z,99036.12
2018-06-09T19:12:26.213Z,99039.30
2018-06-09T19:14:56.128Z,99035.45
2018-06-09T19:17:24.681Z,99042.11
2018-06-09T19:19:53.180Z,99046.63
2018-06-09T19:22:21.725Z,99051.02
2018-06-09T19:24:50.244Z,99054.23
2018-06-09T19:27:22.296Z,99056.07
2018-06-09T19:29:50.889Z,99078.29
2018-06-09T19:32:19.480Z,99096.17
2018-06-09T19:34:47.994Z,99089.60
2018-06-09T19:37:16.536Z,99095.22
2018-06-09T19:39:45.035Z,99102.98
2018-06-09T19:42:13.585Z,99099.56
2018-06-09T19:44:42.100Z,99094.37
2018-06-09T19:47:11.223Z,99099.39
2018-06-09T19:49:39.950Z,99093.59
2018-06-09T19:52:08.524Z,99099.44
2018-06-09T19:54:37.059Z,99095.50
2018-06-09T19:57:05.713Z,99097.63
2018-06-09T19:59:34.251Z,99094.27
2018-06-09T20:02:02.821Z,99107.80
2018-06-09T20:04:33.025Z,99108.97
2018-06-09T20:07:01.593Z,99106.97
2018-06-09T20:09:30.124Z,99103.33
2018-06-09T20:11:58.693Z,99095.45
2018-06-09T20:14:27.221Z,99087.22
2018-06-09T20:16:55.816Z,99092.69
2018-06-09T20:19:24.353Z,99087.96
2018-06-09T20:21:52.914Z,99093.11
2018-06-09T20:24:21.467Z,99098.42
2018-06-09T20:26:50.029Z,99101.48
2018-06-09T20:29:18.593Z,99095.80
2018-06-09T20:31:47.157Z,99088.85
2018-06-09T20:34:16.006Z,99088.50
2018-06-09T20:36:44.589Z,99095.45
2018-06-09T20:39:13.128Z,99099.19
2018-06-09T20:41:41.694Z,99106.39
2018-06-09T20:44:10.244Z,99102.95
2018-06-09T20:46:40.077Z,99113.73
2018-06-09T20:49:08.637Z,99115.59
2018-06-09T20:51:37.177Z,99116.20
2018-06-09T20:54:05.737Z,99110.29
2018-06-09T20:56:34.268Z,99109.99
2018-06-09T20:59:02.882Z,99102.07
2018-06-09T21:01:31.392Z,99100.59
2018-06-09T21:03:59.940Z,99100.96
2018-06-09T21:06:28.479Z,99102.88
2018-06-09T21:08:57.017Z,99099.53
2018-06-09T21:11:25.587Z,99102.09
2018-06-09T21:13:54.691Z,99101.45
2018-06-09T21:16:23.268Z,99098.44
2018-06-09T21:18:51.833Z,99100.25
2018-06-09T21:21:20.338Z,99089.62
2018-06-09T21:23:48.872Z,99090.42
2018-06-09T21:26:17.669Z,99094.55
2018-06-09T21:28:51.792Z,99094.59
2018-06-09T21:31:25.526Z,99095.27
2018-06-09T21:34:05.713Z,99089.20
2018-06-09T21:36:39.616Z,99063.11
2018-06-09T21:40:18.237Z,99093.05
2018-06-09T21:43:49.903Z,99088.23
2018-06-09T21:46:23.901Z,99086.64
2018-06-09T21:48:52.518Z,99086.61
2018-06-09T21:51:20.988Z,99079.46
2018-06-09T21:53:49.551Z,99072.29
2018-06-09T21:56:18.068Z,99068.24
2018-06-09T21:58:46.657Z,99069.57
2018-06-09T22:01:15.239Z,99078.22
2018-06-09T22:03:43.815Z,99071.94
2018-06-09T22:06:12.337Z,99075.12
2018-06-09T22:08:40.920Z,99071.20
2018-06-09T22:11:09.466Z,99079.02
2018-06-09T22:13:37.997Z,99089.56
2018-06-09T22:16:06.552Z,99090.95
2018-06-09T22:18:35.396Z,99091.40
2018-06-09T22:21:03.976Z,99089.71
2018-06-09T22:23:33.177Z,99094.11
2018-06-09T22:26:01.858Z,99091.36
2018-06-09T22:28:30.383Z,99086.13
2018-06-09T22:30:58.941Z,99086.34
2018-06-09T22:33:27.472Z,99083.59
2018-06-09T22:35:56.035Z,99076.57
2018-06-09T22:38:24.567Z,99077.33
2018-06-09T22:40:53.135Z,99075.09
2018-06-09T22:43:21.689Z,99070.96
2018-06-09T22:45:53.869Z,99067.20
2018-06-09T22:48:22.385Z,99061.87
2018-06-09T22:50:50.948Z,99069.92
2018-06-09T22:53:19.474Z,99064.08
2018-06-09T22:55:48.025Z,99065.47
2018-06-09T22:58:16.596Z,99055.49
2018-06-09T23:00:47.118Z,99056.70
2018-06-09T23:03:16.332Z,99048.49
2018-06-09T23:05:47.251Z,99053.60
2018-06-09T23:08:22.762Z,99055.20
2018-06-09T23:10:51.384Z,99049.59
2018-06-09T23:13:20.029Z,99044.42
2018-06-09T23:15:48.597Z,99036.03
2018-06-09T23:18:17.117Z,99030.11
2018-06-09T23:20:45.684Z,99032.26
2018-06-09T23:23:14.214Z,99030.41
2018-06-09T23:25:42.775Z,99026.39
2018-06-09T23:28:11.608Z,99026.03
2018-06-09T23:30:40.179Z,99031.41
2018-06-09T23:33:08.804Z,99028.66
2018-06-09T23:35:37.354Z,99032.14
2018-06-09T23:38:05.899Z,99033.77
2018-06-09T23:40:34.456Z,99038.22
2018-06-09T23:43:03.417Z,99048.44
2018-06-09T23:45:32.002Z,99049.48
2018-06-09T23:48:00.522Z,99034.82
2018-06-09T23:50:29.168Z,99025.20
2018-06-09T23:52:57.733Z,99028.04
2018-06-09T23:55:26.610Z,99028.02
2018-06-09T23:57:55.152Z,99025.70
